Jatai, Brazil
Current Conditions -  °F | °C
As of 10:00 PM on Wednesday 17 Dec 2014 (Local Time) from SBGO Reporting Station
Thunderstorm Thunderstorm  
Wind Chill: 73°   Ceiling: 10000
Heat Index: 73°   Visibility: 6mi
Dew Point: 66°   Wind: 5mph
Humidity: 78%   Direction: 360°N
Pressure: NA   Gusts: NA
Location:  17.88°S, 51.71°W
Report Text: SBGO 180000Z 36004KT 9999 VCTS FEW035 FEW040CB BKN100 23/19 Q1013
Loading
Personal Weather Stations






























Interactive Weather Map New forecast layout! Learn more

10-Day Weather Forecast

Advertisements
Track Severe Weather on mobile